Time;durP1;ratioP1;P1;durP2;ratioP2;P2;SDS_P1;SDS_P2;PMS_P1;PMS_P2;Temp;Humidity;BMP_temperature;BMP_pressure;BME280_temperature;BME280_humidity;BME280_pressure;Samples;Min_cycle;Max_cycle;Signal;HPM_P1;HPM_P2
2023/11/22 00:00:45;;;;;;;1.92;1.20;;;4.50;93.70;;;;;;4788680;29;20526;-75
2023/11/22 00:03:11;;;;;;;1.98;0.98;;;4.50;93.60;;;;;;4788772;29;20055;-73
2023/11/22 00:05:36;;;;;;;1.30;1.00;;;4.50;93.70;;;;;;4804055;29;20047;-75
2023/11/22 00:08:02;;;;;;;1.90;0.98;;;4.60;93.70;;;;;;4758807;29;20038;-74
2023/11/22 00:10:28;;;;;;;1.80;0.80;;;4.60;93.60;;;;;;4788963;29;20126;-75
2023/11/22 00:12:54;;;;;;;1.52;1.15;;;4.60;93.60;;;;;;4819191;29;20039;-75
2023/11/22 00:15:20;;;;;;;2.90;1.40;;;4.50;93.60;;;;;;4793220;29;20383;-74
2023/11/22 00:17:45;;;;;;;1.95;1.05;;;4.60;93.60;;;;;;4791454;29;20098;-75
2023/11/22 00:20:11;;;;;;;1.52;1.00;;;4.60;93.60;;;;;;4777480;29;20053;-74
2023/11/22 00:22:37;;;;;;;2.38;1.30;;;4.60;93.60;;;;;;4807921;29;20557;-75
2023/11/22 00:25:03;;;;;;;2.60;1.40;;;4.50;93.50;;;;;;4807215;29;20058;-76
2023/11/22 00:27:31;;;;;;;1.60;1.10;;;4.50;93.60;;;;;;4791525;29;20409;-74
2023/11/22 00:29:57;;;;;;;2.65;1.30;;;4.50;93.60;;;;;;4792878;29;20037;-75
2023/11/22 00:32:23;;;;;;;2.42;1.30;;;4.50;93.60;;;;;;4823484;29;20038;-75
2023/11/22 00:34:49;;;;;;;3.08;1.60;;;4.50;93.60;;;;;;4777496;29;20491;-76
2023/11/22 00:37:15;;;;;;;2.10;1.35;;;4.50;93.60;;;;;;4777266;29;20133;-76
2023/11/22 00:39:41;;;;;;;1.98;1.20;;;4.50;93.60;;;;;;4806572;29;20073;-75
2023/11/22 00:42:08;;;;;;;2.55;1.30;;;4.50;93.60;;;;;;4777537;29;20034;-74
2023/11/22 00:44:34;;;;;;;1.60;1.00;;;4.50;93.60;;;;;;4806685;29;20038;-74
2023/11/22 00:47:00;;;;;;;1.88;1.20;;;4.50;93.50;;;;;;4776936;29;20049;-76
2023/11/22 00:49:26;;;;;;;3.17;1.30;;;4.50;93.50;;;;;;4787922;29;20033;-75
2023/11/22 00:51:52;;;;;;;2.45;1.30;;;4.50;93.50;;;;;;4776802;29;20125;-75
2023/11/22 00:54:19;;;;;;;1.98;1.13;;;4.50;93.50;;;;;;4823242;29;20054;-75
2023/11/22 00:56:45;;;;;;;1.52;0.90;;;4.50;93.50;;;;;;4806809;29;20083;-75
2023/11/22 00:59:12;;;;;;;2.00;1.10;;;4.50;93.50;;;;;;4805814;29;20039;-75
2023/11/22 01:01:37;;;;;;;1.75;1.13;;;4.50;93.50;;;;;;4815588;29;20046;-76
2023/11/22 01:04:04;;;;;;;2.53;1.30;;;4.50;93.50;;;;;;4814633;29;20106;-75
2023/11/22 01:06:32;;;;;;;2.45;1.10;;;4.50;93.60;;;;;;4806119;29;20098;-76
2023/11/22 01:08:57;;;;;;;1.90;1.00;;;4.40;93.50;;;;;;4785583;29;20066;-75
2023/11/22 01:11:23;;;;;;;1.42;1.00;;;4.60;93.60;;;;;;4802540;29;20506;-75
2023/11/22 01:13:49;;;;;;;2.47;1.30;;;4.50;93.60;;;;;;4787938;29;20433;-75
2023/11/22 01:16:15;;;;;;;1.98;1.20;;;4.40;93.60;;;;;;4772306;29;20051;-76
2023/11/22 01:18:41;;;;;;;1.52;1.08;;;4.50;93.60;;;;;;4802314;29;20125;-76
2023/11/22 01:21:08;;;;;;;2.25;1.17;;;4.50;93.60;;;;;;4800833;29;20438;-76
2023/11/22 01:23:33;;;;;;;2.35;1.17;;;4.40;93.50;;;;;;4772249;29;20519;-76
2023/11/22 01:26:00;;;;;;;2.25;0.93;;;4.40;93.50;;;;;;4802381;29;20051;-76
2023/11/22 01:28:27;;;;;;;2.47;1.10;;;4.40;93.50;;;;;;4787110;29;20039;-77
2023/11/22 01:30:54;;;;;;;3.30;1.52;;;4.40;93.50;;;;;;4772616;29;20039;-76
2023/11/22 01:33:20;;;;;;;1.75;1.13;;;4.40;93.50;;;;;;4802212;29;20047;-76
2023/11/22 01:35:46;;;;;;;1.52;1.10;;;4.40;93.50;;;;;;4757451;29;20114;-76
2023/11/22 01:38:12;;;;;;;1.80;1.10;;;4.40;93.50;;;;;;4803015;29;20173;-76
2023/11/22 01:40:45;;;;;;;2.17;1.20;;;4.40;93.60;;;;;;4789350;29;20482;-76
2023/11/22 01:43:18;;;;;;;2.08;1.15;;;4.40;93.50;;;;;;4825112;29;20390;-77
2023/11/22 01:45:44;;;;;;;1.60;1.00;;;4.30;93.50;;;;;;4792162;29;20394;-76
2023/11/22 01:48:11;;;;;;;2.00;0.98;;;4.30;93.60;;;;;;4825441;29;20034;-76
2023/11/22 01:50:40;;;;;;;1.73;1.00;;;4.30;93.60;;;;;;4809317;29;20041;-76
2023/11/22 01:53:07;;;;;;;1.80;1.00;;;4.30;93.60;;;;;;4793687;29;20087;-76
2023/11/22 01:55:34;;;;;;;1.35;0.93;;;4.30;93.60;;;;;;4825442;29;20046;-76
2023/11/22 01:58:01;;;;;;;1.75;1.08;;;4.20;93.60;;;;;;4809038;29;20061;-76
2023/11/22 02:00:35;;;;;;;1.67;1.00;;;4.20;93.60;;;;;;4825157;29;20046;-76
2023/11/22 02:03:01;;;;;;;1.20;0.90;;;4.20;93.60;;;;;;4825646;29;20042;-76
2023/11/22 02:05:27;;;;;;;1.08;0.80;;;4.10;93.60;;;;;;4823818;29;20042;-76
2023/11/22 02:07:53;;;;;;;2.20;1.27;;;4.10;93.60;;;;;;4809396;29;20504;-76
2023/11/22 02:10:19;;;;;;;1.10;0.90;;;4.10;93.60;;;;;;4808025;29;20031;-77
2023/11/22 02:12:44;;;;;;;1.70;1.08;;;4.10;93.60;;;;;;4792475;29;20092;-76
2023/11/22 02:15:11;;;;;;;1.80;0.90;;;4.10;93.60;;;;;;4809042;29;20039;-76
2023/11/22 02:17:37;;;;;;;3.20;1.42;;;4.10;93.60;;;;;;4808264;29;20427;-77
2023/11/22 02:20:06;;;;;;;0.73;0.70;;;4.00;93.60;;;;;;4809204;29;20098;-77
2023/11/22 02:22:32;;;;;;;1.77;1.00;;;4.00;93.70;;;;;;4808696;29;20050;-76
2023/11/22 02:24:58;;;;;;;0.93;0.80;;;3.90;93.60;;;;;;4825523;29;20390;-76
2023/11/22 02:27:23;;;;;;;1.98;1.00;;;4.00;93.70;;;;;;4793517;29;20057;-76
2023/11/22 02:29:50;;;;;;;1.77;1.00;;;3.90;93.70;;;;;;4808733;29;20042;-76
2023/11/22 02:32:15;;;;;;;2.08;1.05;;;3.90;93.70;;;;;;4824791;29;20031;-76
2023/11/22 02:34:41;;;;;;;1.65;1.02;;;3.90;93.70;;;;;;4824764;29;20061;-76
2023/11/22 02:37:08;;;;;;;1.27;0.80;;;3.90;93.60;;;;;;4808303;29;20110;-76
2023/11/22 02:39:48;;;;;;;1.88;1.05;;;3.90;93.70;;;;;;4824603;29;20046;-77
2023/11/22 02:42:14;;;;;;;1.52;0.98;;;3.90;93.70;;;;;;4793269;29;20042;-76
2023/11/22 02:44:40;;;;;;;1.73;0.95;;;3.80;93.70;;;;;;4807528;29;20130;-76
2023/11/22 02:47:05;;;;;;;1.38;0.90;;;3.80;93.70;;;;;;4824680;29;20043;-77
2023/11/22 02:49:31;;;;;;;2.17;1.10;;;3.80;93.70;;;;;;4807391;29;20542;-76
2023/11/22 02:51:56;;;;;;;1.63;0.90;;;3.80;93.70;;;;;;4824772;29;20095;-76
2023/11/22 02:54:22;;;;;;;2.15;1.10;;;3.80;93.70;;;;;;4793014;29;20125;-77
2023/11/22 02:56:48;;;;;;;1.35;0.75;;;3.80;93.70;;;;;;4808436;29;20075;-76
2023/11/22 02:59:13;;;;;;;1.45;1.15;;;3.80;93.70;;;;;;4789281;29;20062;-76
2023/11/22 03:01:42;;;;;;;1.65;0.80;;;3.70;93.70;;;;;;4808148;29;20138;-77
2023/11/22 03:04:08;;;;;;;1.23;0.70;;;3.70;93.70;;;;;;4824417;29;20046;-76
2023/11/22 03:06:36;;;;;;;1.00;0.73;;;3.70;93.70;;;;;;4807994;29;20042;-76
2023/11/22 03:09:02;;;;;;;1.90;0.93;;;3.80;93.70;;;;;;4824359;29;20106;-76
2023/11/22 03:11:27;;;;;;;1.77;1.00;;;3.70;93.70;;;;;;4824128;29;20106;-76
2023/11/22 03:13:53;;;;;;;1.50;0.95;;;3.70;93.70;;;;;;4792303;29;20038;-77
2023/11/22 03:16:19;;;;;;;2.10;1.10;;;3.70;93.70;;;;;;4824722;29;20106;-76
2023/11/22 03:18:44;;;;;;;2.08;1.00;;;3.60;93.70;;;;;;4824240;29;20497;-76
2023/11/22 03:21:10;;;;;;;1.60;1.10;;;3.60;93.70;;;;;;4807822;29;20183;-76
2023/11/22 03:23:36;;;;;;;1.38;0.90;;;3.60;93.70;;;;;;4792833;29;20042;-76
2023/11/22 03:26:03;;;;;;;1.48;0.98;;;3.60;93.70;;;;;;4792952;29;20485;-76
2023/11/22 03:28:31;;;;;;;2.30;1.05;;;3.50;93.70;;;;;;4806067;29;20061;-76
2023/11/22 03:30:56;;;;;;;1.60;0.82;;;3.60;93.70;;;;;;4792837;29;20495;-76
2023/11/22 03:33:22;;;;;;;1.60;1.00;;;3.50;93.70;;;;;;4791927;29;20070;-76
2023/11/22 03:35:48;;;;;;;1.48;0.85;;;3.60;93.70;;;;;;4807835;29;20035;-76
2023/11/22 03:38:13;;;;;;;1.40;0.80;;;3.50;93.70;;;;;;4824314;29;20047;-76
2023/11/22 03:40:40;;;;;;;1.38;0.80;;;3.50;93.70;;;;;;4823910;29;20053;-76
2023/11/22 03:43:08;;;;;;;1.08;0.80;;;3.50;93.70;;;;;;4792486;29;20107;-76
2023/11/22 03:45:33;;;;;;;1.42;0.90;;;3.50;93.70;;;;;;4808248;29;20398;-77
2023/11/22 03:47:59;;;;;;;1.15;0.90;;;3.40;93.70;;;;;;4807517;29;20129;-76
2023/11/22 03:50:25;;;;;;;1.52;0.80;;;3.40;93.70;;;;;;4823891;29;20079;-75
2023/11/22 03:52:51;;;;;;;1.30;0.80;;;3.40;93.80;;;;;;4824044;29;20073;-76
2023/11/22 03:55:17;;;;;;;1.17;0.80;;;3.40;93.80;;;;;;4824212;29;20133;-76
2023/11/22 03:57:43;;;;;;;1.48;0.73;;;3.30;93.70;;;;;;4823594;29;20046;-76
2023/11/22 04:00:10;;;;;;;0.95;0.80;;;3.30;93.70;;;;;;4823897;29;20049;-76
2023/11/22 04:02:37;;;;;;;1.20;0.73;;;3.40;93.80;;;;;;4824059;29;20103;-76
2023/11/22 04:05:03;;;;;;;1.42;0.80;;;3.30;93.80;;;;;;4823808;29;20052;-76
2023/11/22 04:07:28;;;;;;;0.95;0.70;;;3.30;93.80;;;;;;4823642;29;20406;-76
2023/11/22 04:09:54;;;;;;;0.85;0.55;;;3.30;93.80;;;;;;4806517;29;20095;-76
2023/11/22 04:12:22;;;;;;;1.00;0.73;;;3.30;93.80;;;;;;4807493;29;20406;-76
2023/11/22 04:14:47;;;;;;;0.70;0.70;;;3.30;93.80;;;;;;4823579;29;20038;-76
2023/11/22 04:17:13;;;;;;;1.58;0.80;;;3.20;93.80;;;;;;4823741;29;20045;-76
2023/11/22 04:19:39;;;;;;;1.42;0.90;;;3.20;93.80;;;;;;4824042;29;20034;-76
2023/11/22 04:22:05;;;;;;;1.92;0.98;;;3.20;93.80;;;;;;4807000;29;20121;-76
2023/11/22 04:24:31;;;;;;;2.03;1.00;;;3.10;93.80;;;;;;4823190;29;20410;-76
2023/11/22 04:26:58;;;;;;;1.75;0.90;;;3.10;93.80;;;;;;4806216;29;20043;-76
2023/11/22 04:29:24;;;;;;;1.67;0.98;;;3.00;93.80;;;;;;4791763;29;20494;-76
2023/11/22 04:31:49;;;;;;;1.63;0.98;;;3.00;93.80;;;;;;4823454;29;20045;-76
2023/11/22 04:34:15;;;;;;;1.42;0.90;;;2.90;93.80;;;;;;4823217;29;20041;-76
2023/11/22 04:36:41;;;;;;;1.73;0.95;;;2.90;93.80;;;;;;4823643;29;20042;-76
2023/11/22 04:39:07;;;;;;;1.90;0.90;;;2.90;93.90;;;;;;4806526;29;20061;-77
2023/11/22 04:41:34;;;;;;;1.05;0.73;;;2.80;93.90;;;;;;4823469;29;20056;-76
2023/11/22 04:44:00;;;;;;;1.88;1.02;;;2.70;93.80;;;;;;4823168;29;20055;-76
2023/11/22 04:46:25;;;;;;;1.58;0.90;;;2.80;93.90;;;;;;4823490;29;20049;-76
2023/11/22 04:48:51;;;;;;;1.30;0.90;;;2.70;93.90;;;;;;4823552;29;20083;-76
2023/11/22 04:51:17;;;;;;;2.15;1.00;;;2.60;93.90;;;;;;4776686;29;20039;-77
2023/11/22 04:53:44;;;;;;;0.95;0.85;;;2.60;93.90;;;;;;4821821;29;20485;-76
2023/11/22 04:56:09;;;;;;;1.25;0.70;;;2.60;94.00;;;;;;4806445;29;20043;-76
2023/11/22 04:58:35;;;;;;;1.50;0.75;;;2.50;93.90;;;;;;4822997;29;20041;-77
2023/11/22 05:01:01;;;;;;;1.73;0.85;;;2.60;94.00;;;;;;4822774;29;20072;-76
2023/11/22 05:03:27;;;;;;;1.85;1.10;;;2.50;94.00;;;;;;4806788;29;20430;-78
2023/11/22 05:05:53;;;;;;;1.05;0.82;;;2.40;94.00;;;;;;4790940;29;20067;-76
2023/11/22 05:08:19;;;;;;;1.27;0.98;;;2.40;94.00;;;;;;4806251;29;20039;-76
2023/11/22 05:10:44;;;;;;;1.90;1.00;;;2.40;94.00;;;;;;4823024;29;20034;-76
2023/11/22 05:13:10;;;;;;;1.30;0.75;;;2.30;94.00;;;;;;4805591;29;20070;-77
2023/11/22 05:15:36;;;;;;;1.75;0.90;;;2.20;94.00;;;;;;4823153;29;20485;-76
2023/11/22 05:18:02;;;;;;;2.55;1.05;;;2.30;94.00;;;;;;4823194;29;20044;-76
2023/11/22 05:20:28;;;;;;;1.98;1.10;;;2.20;94.20;;;;;;4806913;29;20405;-76
2023/11/22 05:22:54;;;;;;;1.80;1.10;;;2.30;94.00;;;;;;4791145;29;20050;-77
2023/11/22 05:25:20;;;;;;;1.13;0.88;;;2.30;94.00;;;;;;4806912;29;20057;-77
2023/11/22 05:27:45;;;;;;;1.52;1.00;;;2.30;94.00;;;;;;4806486;29;20035;-77
2023/11/22 05:30:11;;;;;;;1.33;0.80;;;2.20;94.00;;;;;;4791727;29;20062;-77
2023/11/22 05:32:37;;;;;;;1.13;0.73;;;2.20;93.90;;;;;;4806139;29;20056;-77
2023/11/22 05:35:06;;;;;;;1.33;0.80;;;2.30;93.90;;;;;;4806282;29;20037;-76
2023/11/22 05:37:32;;;;;;;1.52;0.88;;;2.20;93.90;;;;;;4806168;29;20053;-76
2023/11/22 05:39:59;;;;;;;1.20;0.90;;;2.20;93.90;;;;;;4790241;29;20050;-76
2023/11/22 05:42:24;;;;;;;1.45;1.00;;;2.30;93.90;;;;;;4806136;29;20086;-76
2023/11/22 05:44:50;;;;;;;1.88;0.90;;;2.20;93.90;;;;;;4806063;29;20898;-76
2023/11/22 05:47:18;;;;;;;1.67;0.75;;;2.30;93.90;;;;;;4806215;29;20126;-76
2023/11/22 05:49:44;;;;;;;0.80;0.60;;;2.30;93.80;;;;;;4806302;29;20111;-76
2023/11/22 05:52:09;;;;;;;1.73;1.00;;;2.30;93.80;;;;;;4822585;29;20051;-76
2023/11/22 05:54:36;;;;;;;1.13;0.68;;;2.30;93.80;;;;;;4806506;29;20042;-77
2023/11/22 05:57:02;;;;;;;1.10;0.70;;;2.30;93.80;;;;;;4803181;29;20074;-78
2023/11/22 05:59:28;;;;;;;1.58;0.88;;;2.30;93.80;;;;;;4805507;29;20066;-76
2023/11/22 06:01:53;;;;;;;1.33;0.80;;;2.30;93.80;;;;;;4805785;29;20046;-76
2023/11/22 06:04:19;;;;;;;2.08;0.80;;;2.30;93.80;;;;;;4822257;29;20047;-76
2023/11/22 06:06:45;;;;;;;1.15;0.90;;;2.40;93.80;;;;;;4806057;29;20058;-76
2023/11/22 06:09:14;;;;;;;1.92;0.80;;;2.40;93.80;;;;;;4822055;29;20402;-76
2023/11/22 06:11:40;;;;;;;0.90;0.80;;;2.40;93.70;;;;;;4805421;29;20034;-76
2023/11/22 06:14:06;;;;;;;1.52;0.80;;;2.40;93.70;;;;;;4806002;29;20513;-76
2023/11/22 06:16:32;;;;;;;1.52;0.65;;;2.40;93.70;;;;;;4806004;29;20153;-76
2023/11/22 06:18:58;;;;;;;1.00;0.70;;;2.40;93.70;;;;;;4805764;29;20379;-76
2023/11/22 06:21:26;;;;;;;0.88;0.70;;;2.50;93.70;;;;;;4822119;29;20118;-76
2023/11/22 06:23:55;;;;;;;1.20;0.80;;;2.50;93.70;;;;;;4788114;29;20495;-76
2023/11/22 06:26:21;;;;;;;1.48;0.80;;;2.50;94.00;;;;;;4811175;29;20504;-76
2023/11/22 06:28:49;;;;;;;1.50;0.85;;;2.50;93.70;;;;;;4825447;29;20080;-76
2023/11/22 06:31:15;;;;;;;1.25;0.73;;;2.50;93.60;;;;;;4779480;29;20620;-75
2023/11/22 06:33:40;;;;;;;1.58;0.90;;;2.50;93.60;;;;;;4793762;29;20094;-75
2023/11/22 06:36:06;;;;;;;1.13;0.80;;;2.40;93.60;;;;;;4808644;29;20486;-75
2023/11/22 06:38:32;;;;;;;2.63;0.93;;;2.50;93.60;;;;;;4825147;29;20046;-75
2023/11/22 06:40:58;;;;;;;1.70;1.00;;;2.50;93.60;;;;;;4792863;29;20042;-76
2023/11/22 06:43:23;;;;;;;1.85;0.90;;;2.50;93.60;;;;;;4808374;29;20137;-75
2023/11/22 06:45:50;;;;;;;1.10;0.73;;;2.50;93.60;;;;;;4824994;29;20080;-75
2023/11/22 06:48:16;;;;;;;1.42;1.00;;;2.50;93.60;;;;;;4793129;29;20043;-75
2023/11/22 06:50:42;;;;;;;1.13;0.80;;;2.50;93.60;;;;;;4808783;29;20414;-76
2023/11/22 06:53:08;;;;;;;1.10;0.60;;;2.60;93.60;;;;;;4824736;29;20030;-76
2023/11/22 06:55:33;;;;;;;1.23;0.73;;;2.60;93.60;;;;;;4825219;29;20046;-75
2023/11/22 06:57:59;;;;;;;1.20;0.70;;;2.60;93.60;;;;;;4825246;29;20042;-75
2023/11/22 07:00:27;;;;;;;1.25;0.73;;;2.60;93.60;;;;;;4825117;29;20035;-75
2023/11/22 07:02:53;;;;;;;1.42;0.85;;;2.60;93.60;;;;;;4825726;29;20051;-75
2023/11/22 07:05:18;;;;;;;1.10;0.73;;;2.70;93.60;;;;;;4793102;29;20392;-75
2023/11/22 07:07:44;;;;;;;1.40;0.82;;;2.70;93.60;;;;;;4825182;29;20054;-76
2023/11/22 07:10:11;;;;;;;2.35;0.90;;;2.70;93.50;;;;;;4825310;29;20038;-74
2023/11/22 07:12:37;;;;;;;1.15;0.70;;;2.80;93.50;;;;;;4808131;29;20049;-76
2023/11/22 07:15:05;;;;;;;1.75;0.88;;;2.70;93.50;;;;;;4824558;29;20114;-76
2023/11/22 07:17:33;;;;;;;1.30;0.90;;;2.70;93.50;;;;;;4792804;29;20045;-76
2023/11/22 07:20:00;;;;;;;0.80;0.63;;;2.80;93.50;;;;;;4808388;29;20091;-77
2023/11/22 07:22:26;;;;;;;0.73;0.60;;;2.80;93.40;;;;;;4808427;29;20118;-77
2023/11/22 07:24:54;;;;;;;0.80;0.63;;;2.90;93.40;;;;;;4792943;29;20593;-77
2023/11/22 07:27:19;;;;;;;1.60;0.95;;;2.90;93.40;;;;;;4824326;29;20383;-77
2023/11/22 07:29:45;;;;;;;1.02;0.82;;;2.90;93.40;;;;;;4824749;29;20087;-74
2023/11/22 07:32:11;;;;;;;1.42;0.82;;;3.00;93.40;;;;;;4807725;29;20091;-75
2023/11/22 07:34:40;;;;;;;1.65;0.85;;;3.00;93.40;;;;;;4791402;29;20067;-75
2023/11/22 07:37:07;;;;;;;1.92;1.10;;;3.00;93.40;;;;;;4792404;29;20054;-76
2023/11/22 07:39:35;;;;;;;1.17;0.75;;;3.10;93.40;;;;;;4807679;29;20049;-75
2023/11/22 07:42:02;;;;;;;1.20;0.80;;;3.10;93.40;;;;;;4824055;29;20043;-75
2023/11/22 07:44:32;;;;;;;1.25;0.90;;;3.10;93.40;;;;;;4806384;29;20042;-75
2023/11/22 07:46:59;;;;;;;1.98;1.05;;;3.20;93.30;;;;;;4824225;29;20133;-75
2023/11/22 07:49:25;;;;;;;1.60;0.90;;;3.30;93.30;;;;;;4823901;29;20049;-75
2023/11/22 07:51:51;;;;;;;1.58;1.00;;;3.30;93.30;;;;;;4807174;29;20069;-75
2023/11/22 07:54:22;;;;;;;1.67;1.00;;;3.30;93.30;;;;;;4792385;29;20078;-75
2023/11/22 07:56:48;;;;;;;2.15;0.70;;;3.30;93.30;;;;;;4824120;29;20091;-75
2023/11/22 07:59:15;;;;;;;3.55;1.50;;;3.40;93.30;;;;;;4824330;29;20125;-77
2023/11/22 08:05:48;;;;;;;2.47;1.17;;;3.50;93.30;;;;;;4817146;29;20097;-77
2023/11/22 08:08:13;;;;;;;1.90;1.10;;;3.60;93.20;;;;;;4824082;29;20110;-78
2023/11/22 08:10:39;;;;;;;1.95;1.15;;;3.60;93.10;;;;;;4807239;29;20502;-76
2023/11/22 08:13:05;;;;;;;1.92;1.10;;;3.70;93.10;;;;;;4807278;29;20499;-76
2023/11/22 08:15:31;;;;;;;2.03;1.15;;;3.80;93.10;;;;;;4792226;29;20418;-76
2023/11/22 08:17:58;;;;;;;2.22;1.23;;;3.80;93.10;;;;;;4807090;29;20060;-76
2023/11/22 08:20:26;;;;;;;1.15;0.82;;;3.80;93.10;;;;;;4824205;29;20087;-77
2023/11/22 08:24:12;;;;;;;2.63;1.30;;;3.90;93.10;;;;;;4823858;29;20119;-76
2023/11/22 08:26:39;;;;;;;2.58;0.93;;;3.90;93.00;;;;;;4730271;30;20644;-76
2023/11/22 08:32:22;;;;;;;2.15;1.27;;;4.00;93.00;;;;;;4695052;30;20489;-77
2023/11/22 08:34:51;;;;;;;2.63;1.40;;;4.00;93.00;;;;;;4731346;30;20053;-77
2023/11/22 08:37:43;;;;;;;2.58;1.25;;;4.20;93.00;;;;;;4679349;30;20108;-76
2023/11/22 08:40:37;;;;;;;1.80;1.00;;;4.10;92.90;;;;;;4665787;30;20050;-77
2023/11/22 08:43:22;;;;;;;1.85;1.10;;;4.20;92.90;;;;;;4645512;30;20121;-77
2023/11/22 08:46:20;;;;;;;2.53;1.10;;;4.30;92.90;;;;;;4630344;31;20237;-77
2023/11/22 08:49:07;;;;;;;2.35;1.20;;;4.30;92.90;;;;;;4598021;31;20123;-76
2023/11/22 08:51:38;;;;;;;2.13;1.10;;;4.40;92.90;;;;;;4611277;31;20130;-75
2023/11/22 08:54:11;;;;;;;1.23;0.80;;;4.50;93.20;;;;;;4586922;31;20090;-76
2023/11/22 08:56:37;;;;;;;1.70;1.20;;;4.50;92.80;;;;;;4609538;30;20473;-75
2023/11/22 08:59:07;;;;;;;2.30;1.17;;;4.60;92.80;;;;;;4651723;30;20118;-76
2023/11/22 09:01:40;;;;;;;1.15;0.85;;;4.60;92.80;;;;;;4636186;30;20081;-76
2023/11/22 09:04:10;;;;;;;2.92;1.48;;;4.50;92.80;;;;;;4637795;30;20123;-75
2023/11/22 09:06:40;;;;;;;3.10;1.40;;;4.60;92.80;;;;;;4652313;30;20045;-76
2023/11/22 09:09:09;;;;;;;2.45;1.23;;;4.60;92.80;;;;;;4694323;30;20049;-75
2023/11/22 09:11:35;;;;;;;1.85;1.13;;;4.60;92.80;;;;;;4750974;30;20039;-75
2023/11/22 09:14:04;;;;;;;2.10;1.23;;;4.70;92.80;;;;;;4740429;30;20147;-76
2023/11/22 09:16:56;;;;;;;1.98;1.20;;;4.70;92.80;;;;;;4747238;30;20036;-79
2023/11/22 09:19:47;;;;;;;2.28;1.20;;;4.80;92.90;;;;;;4731631;30;20057;-77
2023/11/22 09:31:25;;;;;;;2.00;1.30;;;4.90;92.70;;;;;;4713676;30;20128;-76
2023/11/22 09:33:52;;;;;;;2.60;1.27;;;4.90;92.70;;;;;;4701482;30;20101;-75
2023/11/22 09:36:23;;;;;;;2.17;1.20;;;5.00;92.70;;;;;;4706733;30;20089;-76
2023/11/22 09:39:07;;;;;;;2.60;1.30;;;4.90;92.70;;;;;;4685419;30;20140;-77
2023/11/22 09:41:36;;;;;;;1.90;1.13;;;5.00;92.70;;;;;;4636265;30;20050;-77
2023/11/22 09:47:06;;;;;;;2.25;1.40;;;5.10;92.70;;;;;;4668811;30;20103;-76
2023/11/22 09:50:05;;;;;;;2.20;1.33;;;5.10;92.70;;;;;;4689613;30;20071;-79
2023/11/22 09:52:34;;;;;;;1.92;1.30;;;5.30;92.70;;;;;;4701345;30;20096;-78
2023/11/22 09:55:17;;;;;;;2.58;1.45;;;5.30;92.60;;;;;;4683259;30;20195;-77
2023/11/22 09:57:46;;;;;;;2.28;1.27;;;5.30;92.90;;;;;;4666976;30;20069;-78
2023/11/22 10:00:31;;;;;;;2.30;1.40;;;5.40;92.60;;;;;;4672453;30;20042;-77
2023/11/22 10:10:18;;;;;;;2.53;1.30;;;5.60;92.50;;;;;;4613355;31;20070;-76
2023/11/22 10:12:48;;;;;;;2.60;1.63;;;5.60;92.50;;;;;;4549082;31;20061;-78
2023/11/22 10:22:08;;;;;;;2.05;1.20;;;5.60;92.60;;;;;;4493645;31;20070;-77
2023/11/22 10:24:52;;;;;;;2.30;1.48;;;5.50;92.70;;;;;;4564944;31;20077;-78
2023/11/22 10:27:21;;;;;;;2.88;1.40;;;5.60;92.70;;;;;;4556634;31;20052;-78
2023/11/22 10:29:52;;;;;;;2.42;1.30;;;5.70;92.60;;;;;;4580811;31;20080;-77
2023/11/22 10:32:24;;;;;;;2.30;1.15;;;5.70;92.60;;;;;;4577203;31;20568;-77
2023/11/22 10:35:30;;;;;;;;;;;5.70;92.60;;;;;;4564116;31;20037;-77
2023/11/22 10:38:58;;;;;;;1.63;1.08;;;5.70;92.60;;;;;;4534625;31;20013;-79
2023/11/22 10:41:53;;;;;;;1.80;1.05;;;5.80;92.70;;;;;;4562148;31;20107;-77
2023/11/22 10:45:21;;;;;;;4.15;1.80;;;5.90;92.60;;;;;;4564592;31;20052;-78
2023/11/22 10:48:02;;;;;;;3.00;1.50;;;6.00;92.50;;;;;;4542773;31;20077;-76
2023/11/22 10:51:00;;;;;;;2.45;1.42;;;6.00;92.40;;;;;;4479023;31;20070;-74
2023/11/22 10:54:36;;;;;;;3.13;1.63;;;6.00;92.50;;;;;;4508888;31;20091;-77
2023/11/22 11:00:19;;;;;;;1.83;1.20;;;6.10;92.50;;;;;;4505471;31;20093;-78
2023/11/22 11:10:15;;;;;;;1.58;1.02;;;6.20;92.40;;;;;;4546621;31;20553;-76
2023/11/22 11:12:42;;;;;;;2.50;1.30;;;6.30;92.40;;;;;;4560440;31;20049;-77
2023/11/22 11:15:09;;;;;;;3.30;1.52;;;6.30;92.50;;;;;;4542281;31;20052;-77
2023/11/22 11:17:39;;;;;;;2.75;1.40;;;6.20;92.30;;;;;;4564215;31;20143;-77
2023/11/22 11:20:06;;;;;;;2.25;1.38;;;6.30;92.40;;;;;;4580333;31;20049;-77
2023/11/22 11:22:34;;;;;;;2.67;1.73;;;6.20;92.30;;;;;;4563849;31;20049;-77
2023/11/22 11:25:04;;;;;;;2.90;1.52;;;6.20;92.50;;;;;;4583604;31;20056;-77
2023/11/22 11:27:32;;;;;;;4.10;1.90;;;6.30;92.50;;;;;;4627236;30;20046;-77
2023/11/22 11:29:58;;;;;;;3.35;1.50;;;6.40;92.40;;;;;;4634998;30;20096;-78
2023/11/22 12:01:20;;;;;;;4.55;2.10;;;6.40;92.30;;;;;;4572803;31;20558;-78
2023/11/22 12:03:58;;;;;;;4.47;2.00;;;6.30;92.30;;;;;;4543295;31;20062;-78
2023/11/22 12:06:24;;;;;;;2.45;1.48;;;6.30;92.20;;;;;;4546961;31;20062;-78
2023/11/22 12:08:49;;;;;;;5.50;2.47;;;6.40;92.30;;;;;;4533531;31;20433;-77
2023/11/22 12:11:17;;;;;;;3.20;1.80;;;6.40;92.30;;;;;;4530149;31;20053;-78
2023/11/22 12:13:46;;;;;;;3.53;1.95;;;6.40;92.20;;;;;;4545133;31;20057;-77
2023/11/22 12:20:26;;;;;;;4.03;1.95;;;6.50;92.20;;;;;;4540318;31;20055;-76
2023/11/22 12:28:58;;;;;;;6.57;2.80;;;6.40;92.20;;;;;;4605416;31;20682;-76
2023/11/22 12:31:29;;;;;;;4.72;2.10;;;6.40;92.20;;;;;;4609859;30;20121;-76
2023/11/22 12:34:20;;;;;;;5.20;2.50;;;6.50;92.10;;;;;;4650276;30;20126;-78
2023/11/22 12:40:50;;;;;;;5.25;2.70;;;6.50;92.10;;;;;;4592948;31;20048;-78
2023/11/22 12:51:44;;;;;;;5.35;2.70;;;6.60;91.80;;;;;;4575676;31;20056;-76
2023/11/22 12:55:07;;;;;;;3.80;2.05;;;6.60;91.80;;;;;;4550306;31;20607;-77
2023/11/22 12:58:09;;;;;;;5.90;2.55;;;6.60;91.80;;;;;;4520537;31;20077;-77
2023/11/22 13:03:53;;;;;;;3.60;2.10;;;6.80;91.70;;;;;;4537486;31;20092;-78
2023/11/22 13:09:14;;;;;;;5.30;2.67;;;6.90;91.60;;;;;;4524641;31;20117;-77
2023/11/22 13:11:58;;;;;;;4.95;2.45;;;7.00;91.50;;;;;;4561797;31;20049;-78
2023/11/22 13:14:58;;;;;;;5.05;2.35;;;7.00;91.50;;;;;;4612985;31;20312;-76
2023/11/22 13:17:35;;;;;;;5.30;2.70;;;7.00;91.40;;;;;;4630041;31;20055;-77
2023/11/22 13:20:14;;;;;;;5.85;2.78;;;6.90;91.30;;;;;;4628873;31;20408;-78
2023/11/22 13:27:09;;;;;;;6.25;2.63;;;6.80;91.60;;;;;;4599885;31;20402;-77
2023/11/22 13:36:11;;;;;;;6.82;3.10;;;6.60;91.70;;;;;;4597758;31;20056;-78
2023/11/22 13:43:03;;;;;;;5.78;2.53;;;6.50;91.80;;;;;;4577564;31;20457;-79
2023/11/22 14:03:35;;;;;;;5.63;2.25;;;6.60;91.80;;;;;;4569037;31;20049;-78
2023/11/22 14:06:51;;;;;;;6.15;2.70;;;6.50;91.80;;;;;;4548164;31;20160;-77
2023/11/22 14:09:19;;;;;;;6.85;3.00;;;6.50;91.80;;;;;;4540847;31;20058;-77
2023/11/22 14:11:49;;;;;;;6.55;2.67;;;6.50;91.80;;;;;;4522635;31;20042;-76
2023/11/22 14:14:19;;;;;;;7.38;2.80;;;6.40;91.90;;;;;;4555983;31;20071;-77
2023/11/22 14:16:45;;;;;;;5.57;2.57;;;6.50;91.80;;;;;;4544330;31;20051;-77
2023/11/22 14:19:13;;;;;;;6.05;2.65;;;6.50;91.80;;;;;;4525315;31;20287;-78
2023/11/22 14:21:38;;;;;;;6.13;2.90;;;6.50;91.80;;;;;;4558142;31;20086;-76
2023/11/22 14:24:08;;;;;;;5.70;2.60;;;6.50;91.90;;;;;;4638394;31;20060;-77
2023/11/22 14:26:37;;;;;;;5.75;2.83;;;6.50;91.80;;;;;;4618893;31;20042;-77
2023/11/22 14:29:03;;;;;;;7.05;2.72;;;6.50;91.80;;;;;;4585057;31;20096;-76
2023/11/22 14:31:32;;;;;;;6.22;2.92;;;6.40;91.80;;;;;;4588133;31;20040;-76
2023/11/22 14:34:33;;;;;;;7.03;3.33;;;6.40;91.80;;;;;;4628347;30;20137;-76
2023/11/22 14:37:02;;;;;;;6.93;2.80;;;6.40;91.80;;;;;;4643174;30;20051;-76
2023/11/22 14:39:29;;;;;;;7.05;3.10;;;6.40;91.80;;;;;;4622449;30;20058;-77
2023/11/22 14:42:17;;;;;;;6.43;2.80;;;6.30;91.80;;;;;;4663987;30;20054;-76
2023/11/22 14:44:44;;;;;;;8.38;3.45;;;6.40;91.80;;;;;;4649795;30;20074;-75
2023/11/22 14:47:23;;;;;;;8.85;3.30;;;6.40;91.80;;;;;;4650482;30;20112;-76
2023/11/22 14:49:54;;;;;;;8.23;3.33;;;6.50;91.80;;;;;;4634061;30;20110;-74
2023/11/22 14:52:47;;;;;;;6.72;3.38;;;6.40;91.80;;;;;;4616413;30;20082;-76
2023/11/22 14:55:13;;;;;;;7.88;3.05;;;6.40;91.80;;;;;;4612494;31;20559;-77
2023/11/22 14:57:48;;;;;;;7.53;3.45;;;6.40;91.80;;;;;;4646599;30;20133;-76
2023/11/22 15:00:31;;;;;;;8.65;3.53;;;6.40;91.80;;;;;;4643888;30;20090;-76
2023/11/22 15:02:57;;;;;;;7.97;3.50;;;6.40;91.80;;;;;;4665190;30;20499;-77
2023/11/22 15:05:23;;;;;;;8.38;3.45;;;6.40;91.80;;;;;;4710676;30;20108;-77
2023/11/22 15:08:42;;;;;;;7.07;3.47;;;6.30;91.80;;;;;;4692363;30;20077;-77
2023/11/22 15:11:08;;;;;;;7.25;3.10;;;6.40;91.80;;;;;;4683096;30;20065;-76
2023/11/22 15:17:15;;;;;;;8.60;3.47;;;6.40;91.80;;;;;;4697744;30;20579;-76
2023/11/22 15:19:46;;;;;;;7.45;3.08;;;6.40;91.80;;;;;;4709688;30;20076;-75
2023/11/22 15:22:35;;;;;;;7.05;3.00;;;6.30;91.80;;;;;;4734986;30;20051;-75
2023/11/22 15:25:10;;;;;;;8.23;3.60;;;6.30;91.80;;;;;;4738454;30;20525;-77
2023/11/22 15:28:04;;;;;;;6.95;3.22;;;6.30;91.80;;;;;;4754960;30;20062;-77
2023/11/22 15:30:56;;;;;;;8.43;3.60;;;6.30;91.80;;;;;;4760318;30;20091;-77
2023/11/22 15:33:22;;;;;;;;;;;6.30;91.80;;;;;;4740111;30;20063;-77